sensor_id;sensor_type;location;lat;lon;timestamp;pressure;altitude;pressure_sealevel;temperature;humidity
16255;BME280;8235;52.198;9.904;2024-03-02T00:00:14;99641.03;;;9.07;nan
16255;BME280;8235;52.198;9.904;2024-03-02T00:02:41;99649.84;;;9.08;82.19
16255;BME280;8235;52.198;9.904;2024-03-02T00:05:08;99650.78;;;9.07;82.46
16255;BME280;8235;52.198;9.904;2024-03-02T00:07:39;99647.50;;;9.03;82.89
16255;BME280;8235;52.198;9.904;2024-03-02T00:10:09;99649.09;;;9.05;82.53
16255;BME280;8235;52.198;9.904;2024-03-02T00:12:37;99654.63;;;9.02;83.34
16255;BME280;8235;52.198;9.904;2024-03-02T00:15:06;99646.03;;;8.99;83.63
16255;BME280;8235;52.198;9.904;2024-03-02T00:17:33;99646.13;;;8.97;83.26
16255;BME280;8235;52.198;9.904;2024-03-02T00:19:59;99647.00;;;8.98;83.23
16255;BME280;8235;52.198;9.904;2024-03-02T00:22:29;99642.78;;;8.95;83.68
16255;BME280;8235;52.198;9.904;2024-03-02T00:24:56;99645.28;;;8.97;83.77
16255;BME280;8235;52.198;9.904;2024-03-02T00:27:23;99643.84;;;8.93;83.88
16255;BME280;8235;52.198;9.904;2024-03-02T00:29:50;99647.47;;;8.92;83.69
16255;BME280;8235;52.198;9.904;2024-03-02T00:32:17;99642.25;;;8.90;84.09
16255;BME280;8235;52.198;9.904;2024-03-02T00:34:43;99646.81;;;8.88;83.82
16255;BME280;8235;52.198;9.904;2024-03-02T00:37:10;99641.72;;;8.85;84.63
16255;BME280;8235;52.198;9.904;2024-03-02T00:39:38;99648.75;;;8.86;84.38
16255;BME280;8235;52.198;9.904;2024-03-02T00:42:05;99648.00;;;8.84;85.15
16255;BME280;8235;52.198;9.904;2024-03-02T00:44:33;99648.94;;;8.83;84.39
16255;BME280;8235;52.198;9.904;2024-03-02T00:47:01;99646.28;;;8.83;85.07
16255;BME280;8235;52.198;9.904;2024-03-02T00:49:28;99648.94;;;8.83;85.37
16255;BME280;8235;52.198;9.904;2024-03-02T00:51:55;99639.19;;;8.84;85.06
16255;BME280;8235;52.198;9.904;2024-03-02T00:54:22;99649.06;;;8.82;85.06
16255;BME280;8235;52.198;9.904;2024-03-02T00:56:49;99645.56;;;8.81;85.07
16255;BME280;8235;52.198;9.904;2024-03-02T00:59:17;99655.00;;;8.85;84.18
16255;BME280;8235;52.198;9.904;2024-03-02T01:01:44;99653.53;;;8.81;84.34
16255;BME280;8235;52.198;9.904;2024-03-02T01:04:10;99657.03;;;8.82;85.20
16255;BME280;8235;52.198;9.904;2024-03-02T01:06:37;99648.31;;;8.80;85.25
16255;BME280;8235;52.198;9.904;2024-03-02T01:09:04;99648.94;;;8.83;85.08
16255;BME280;8235;52.198;9.904;2024-03-02T01:11:31;99648.94;;;8.83;84.77
16255;BME280;8235;52.198;9.904;2024-03-02T01:13:57;99658.63;;;8.84;84.77
16255;BME280;8235;52.198;9.904;2024-03-02T01:16:25;99652.56;;;8.82;84.76
16255;BME280;8235;52.198;9.904;2024-03-02T01:18:51;99664.13;;;8.81;85.10
16255;BME280;8235;52.198;9.904;2024-03-02T01:21:18;99659.56;;;8.83;84.97
16255;BME280;8235;52.198;9.904;2024-03-02T01:23:44;99658.81;;;8.81;85.47
16255;BME280;8235;52.198;9.904;2024-03-02T01:26:11;99659.03;;;8.78;85.12
16255;BME280;8235;52.198;9.904;2024-03-02T01:28:37;99659.19;;;8.77;85.59
16255;BME280;8235;52.198;9.904;2024-03-02T01:31:04;99662.69;;;8.77;85.70
16255;BME280;8235;52.198;9.904;2024-03-02T01:33:32;99656.38;;;8.78;85.06
16255;BME280;8235;52.198;9.904;2024-03-02T01:35:58;99655.44;;;8.79;85.02
16255;BME280;8235;52.198;9.904;2024-03-02T01:38:24;99657.25;;;8.79;85.25
16255;BME280;8235;52.198;9.904;2024-03-02T01:40:51;99654.81;;;8.76;85.28
16255;BME280;8235;52.198;9.904;2024-03-02T01:43:17;99661.19;;;8.73;85.92
16255;BME280;8235;52.198;9.904;2024-03-02T01:45:44;99652.28;;;8.74;86.17
16255;BME280;8235;52.198;9.904;2024-03-02T01:48:11;99664.81;;;8.72;85.75
16255;BME280;8235;52.198;9.904;2024-03-02T01:50:38;99656.22;;;8.68;85.86
16255;BME280;8235;52.198;9.904;2024-03-02T01:53:05;99658.97;;;8.67;86.22
16255;BME280;8235;52.198;9.904;2024-03-02T01:55:32;99657.28;;;8.66;86.33
16255;BME280;8235;52.198;9.904;2024-03-02T01:57:58;99652.19;;;8.63;86.45
16255;BME280;8235;52.198;9.904;2024-03-02T02:00:24;99645.91;;;8.64;86.45
16255;BME280;8235;52.198;9.904;2024-03-02T02:02:51;99650.28;;;8.65;86.29
16255;BME280;8235;52.198;9.904;2024-03-02T02:05:18;99641.34;;;8.66;86.30
16255;BME280;8235;52.198;9.904;2024-03-02T02:07:46;99642.19;;;8.66;86.27
16255;BME280;8235;52.198;9.904;2024-03-02T02:10:13;99639.66;;;8.65;85.69
16255;BME280;8235;52.198;9.904;2024-03-02T02:12:39;99641.56;;;8.63;86.43
16255;BME280;8235;52.198;9.904;2024-03-02T02:15:21;99641.66;;;8.61;85.83
16255;BME280;8235;52.198;9.904;2024-03-02T02:17:48;99635.66;;;8.59;86.48
16255;BME280;8235;52.198;9.904;2024-03-02T02:20:14;99634.16;;;8.55;86.10
16255;BME280;8235;52.198;9.904;2024-03-02T02:22:54;99624.50;;;8.54;86.46
16255;BME280;8235;52.198;9.904;2024-03-02T02:25:20;99625.47;;;8.53;86.52
16255;BME280;8235;52.198;9.904;2024-03-02T02:27:47;99622.91;;;8.52;86.46
16255;BME280;8235;52.198;9.904;2024-03-02T02:30:18;99626.63;;;8.49;86.40
16255;BME280;8235;52.198;9.904;2024-03-02T02:32:45;99624.19;;;8.46;87.17
16255;BME280;8235;52.198;9.904;2024-03-02T02:35:11;99617.94;;;8.47;86.77
16255;BME280;8235;52.198;9.904;2024-03-02T02:37:38;99621.63;;;8.45;87.10
16255;BME280;8235;52.198;9.904;2024-03-02T02:40:07;99617.38;;;8.42;87.21
16255;BME280;8235;52.198;9.904;2024-03-02T02:42:34;99620.41;;;8.38;87.68
16255;BME280;8235;52.198;9.904;2024-03-02T02:45:00;99623.16;;;8.36;87.66
16255;BME280;8235;52.198;9.904;2024-03-02T02:47:27;99621.34;;;8.37;87.55
16255;BME280;8235;52.198;9.904;2024-03-02T02:49:55;99625.16;;;8.32;87.76
16255;BME280;8235;52.198;9.904;2024-03-02T02:52:21;99613.59;;;8.33;87.84
16255;BME280;8235;52.198;9.904;2024-03-02T02:54:47;99618.13;;;8.31;87.42
16255;BME280;8235;52.198;9.904;2024-03-02T02:57:15;99621.00;;;8.28;87.11
16255;BME280;8235;52.198;9.904;2024-03-02T02:59:42;99623.75;;;8.27;87.23
16255;BME280;8235;52.198;9.904;2024-03-02T03:02:08;99613.16;;;8.27;88.02
16255;BME280;8235;52.198;9.904;2024-03-02T03:04:35;99605.28;;;8.25;87.53
16255;BME280;8235;52.198;9.904;2024-03-02T03:07:01;99606.13;;;8.26;87.23
16255;BME280;8235;52.198;9.904;2024-03-02T03:09:27;99602.63;;;8.25;87.89
16255;BME280;8235;52.198;9.904;2024-03-02T03:11:54;99601.91;;;8.23;87.66
16255;BME280;8235;52.198;9.904;2024-03-02T03:14:22;99602.78;;;8.24;87.59
16255;BME280;8235;52.198;9.904;2024-03-02T03:16:48;99601.19;;;8.21;87.24
16255;BME280;8235;52.198;9.904;2024-03-02T03:19:15;99609.13;;;8.21;87.64
16255;BME280;8235;52.198;9.904;2024-03-02T03:21:43;99604.78;;;8.20;87.24
16255;BME280;8235;52.198;9.904;2024-03-02T03:24:09;99604.88;;;8.19;87.16
16255;BME280;8235;52.198;9.904;2024-03-02T03:26:36;99608.59;;;8.16;87.57
16255;BME280;8235;52.198;9.904;2024-03-02T03:29:02;99604.16;;;8.17;87.65
16255;BME280;8235;52.198;9.904;2024-03-02T03:31:30;99605.09;;;8.16;87.35
16255;BME280;8235;52.198;9.904;2024-03-02T03:33:57;99598.00;;;8.16;87.30
16255;BME280;8235;52.198;9.904;2024-03-02T03:36:23;99592.78;;;8.15;86.66
16255;BME280;8235;52.198;9.904;2024-03-02T03:38:50;99587.59;;;8.13;86.87
16255;BME280;8235;52.198;9.904;2024-03-02T03:41:16;99602.75;;;8.11;86.47
16255;BME280;8235;52.198;9.904;2024-03-02T03:43:43;99602.88;;;8.10;86.65
16255;BME280;8235;52.198;9.904;2024-03-02T03:46:09;99597.66;;;8.08;86.63
16255;BME280;8235;52.198;9.904;2024-03-02T03:48:37;99599.47;;;8.08;86.78
16255;BME280;8235;52.198;9.904;2024-03-02T03:51:04;99595.13;;;8.07;86.81
16255;BME280;8235;52.198;9.904;2024-03-02T03:53:30;99599.72;;;8.05;86.40
16255;BME280;8235;52.198;9.904;2024-03-02T03:55:57;99599.72;;;8.05;86.65
16255;BME280;8235;52.198;9.904;2024-03-02T03:58:23;99597.91;;;8.05;86.33
16255;BME280;8235;52.198;9.904;2024-03-02T04:00:50;99605.22;;;8.01;86.72
16255;BME280;8235;52.198;9.904;2024-03-02T04:03:16;99600.03;;;8.00;86.41
16255;BME280;8235;52.198;9.904;2024-03-02T04:05:44;99598.44;;;7.97;86.78
16255;BME280;8235;52.198;9.904;2024-03-02T04:08:11;99597.69;;;7.95;86.23
16255;BME280;8235;52.198;9.904;2024-03-02T04:10:37;99589.81;;;7.94;86.26
16255;BME280;8235;52.198;9.904;2024-03-02T04:13:05;99589.94;;;7.92;86.88
16255;BME280;8235;52.198;9.904;2024-03-02T04:15:32;99591.94;;;7.89;87.08
16255;BME280;8235;52.198;9.904;2024-03-02T04:17:59;99595.56;;;7.88;86.91
16255;BME280;8235;52.198;9.904;2024-03-02T04:20:25;99594.59;;;7.89;87.44
16255;BME280;8235;52.198;9.904;2024-03-02T04:22:53;99593.88;;;7.87;87.70
16255;BME280;8235;52.198;9.904;2024-03-02T04:25:19;99594.94;;;7.84;88.18
16255;BME280;8235;52.198;9.904;2024-03-02T04:27:46;99590.47;;;7.85;87.59
16255;BME280;8235;52.198;9.904;2024-03-02T04:30:13;99601.84;;;7.87;87.68
16255;BME280;8235;52.198;9.904;2024-03-02T04:32:40;99605.44;;;7.86;88.18
16255;BME280;8235;52.198;9.904;2024-03-02T04:35:08;99601.84;;;7.87;87.96
16255;BME280;8235;52.198;9.904;2024-03-02T04:37:35;99599.28;;;7.85;88.04
16255;BME280;8235;52.198;9.904;2024-03-02T04:40:04;99601.59;;;7.90;88.81
16255;BME280;8235;52.198;9.904;2024-03-02T04:42:33;99602.34;;;7.92;88.23
16255;BME280;8235;52.198;9.904;2024-03-02T04:44:59;99592.78;;;7.89;89.03
16255;BME280;8235;52.198;9.904;2024-03-02T04:47:26;99595.44;;;7.89;89.25
16255;BME280;8235;52.198;9.904;2024-03-02T04:49:52;99590.13;;;7.89;88.76
16255;BME280;8235;52.198;9.904;2024-03-02T04:52:19;99590.28;;;7.88;88.97
16255;BME280;8235;52.198;9.904;2024-03-02T04:54:45;99588.78;;;7.84;89.50
16255;BME280;8235;52.198;9.904;2024-03-02T04:57:36;99595.25;;;7.80;89.76
16255;BME280;8235;52.198;9.904;2024-03-02T05:00:03;99594.09;;;7.84;90.20
16255;BME280;8235;52.198;9.904;2024-03-02T05:02:32;99588.34;;;7.77;89.72
16255;BME280;8235;52.198;9.904;2024-03-02T05:04:58;99593.75;;;7.76;89.84
16255;BME280;8235;52.198;9.904;2024-03-02T05:07:25;99600.09;;;7.73;90.35
16255;BME280;8235;52.198;9.904;2024-03-02T05:09:51;99587.81;;;7.72;90.78
16255;BME280;8235;52.198;9.904;2024-03-02T05:12:18;99595.75;;;7.72;90.69
16255;BME280;8235;52.198;9.904;2024-03-02T05:15:14;99594.28;;;7.68;91.06
16255;BME280;8235;52.198;9.904;2024-03-02T05:17:41;99602.44;;;7.65;90.98
16255;BME280;8235;52.198;9.904;2024-03-02T05:20:09;99597.44;;;7.60;90.69
16255;BME280;8235;52.198;9.904;2024-03-02T05:22:36;99591.41;;;7.58;91.22
16255;BME280;8235;52.198;9.904;2024-03-02T05:25:04;99604.75;;;7.57;91.41
16255;BME280;8235;52.198;9.904;2024-03-02T05:27:30;99596.28;;;7.52;91.83
16255;BME280;8235;52.198;9.904;2024-03-02T05:29:58;99599.97;;;7.49;91.91
16255;BME280;8235;52.198;9.904;2024-03-02T05:32:26;99604.53;;;7.47;92.18
16255;BME280;8235;52.198;9.904;2024-03-02T05:34:52;99603.03;;;7.43;92.46
16255;BME280;8235;52.198;9.904;2024-03-02T05:37:19;99605.88;;;7.40;92.89
16255;BME280;8235;52.198;9.904;2024-03-02T05:39:45;99607.78;;;7.38;93.09
16255;BME280;8235;52.198;9.904;2024-03-02T05:42:11;99607.03;;;7.36;93.17
16255;BME280;8235;52.198;9.904;2024-03-02T05:44:38;99609.16;;;7.31;92.76
16255;BME280;8235;52.198;9.904;2024-03-02T05:47:05;99608.41;;;7.29;93.23
16255;BME280;8235;52.198;9.904;2024-03-02T05:49:35;99603.41;;;7.24;92.69
16255;BME280;8235;52.198;9.904;2024-03-02T05:52:01;99602.84;;;7.19;92.08
16255;BME280;8235;52.198;9.904;2024-03-02T05:54:28;99610.38;;;7.13;92.09
16255;BME280;8235;52.198;9.904;2024-03-02T05:56:54;99615.97;;;7.08;92.15
16255;BME280;8235;52.198;9.904;2024-03-02T05:59:21;99620.69;;;7.03;91.85
16255;BME280;8235;52.198;9.904;2024-03-02T06:01:48;99617.41;;;7.00;91.66
16255;BME280;8235;52.198;9.904;2024-03-02T06:04:15;99608.06;;;6.94;92.38
16255;BME280;8235;52.198;9.904;2024-03-02T06:06:43;99614.50;;;6.90;92.39
16255;BME280;8235;52.198;9.904;2024-03-02T06:09:10;99608.66;;;6.85;92.82
16255;BME280;8235;52.198;9.904;2024-03-02T06:11:38;99615.94;;;6.81;92.06
16255;BME280;8235;52.198;9.904;2024-03-02T06:14:06;99623.16;;;6.79;92.58
16255;BME280;8235;52.198;9.904;2024-03-02T06:16:33;99632.22;;;6.75;93.35
16255;BME280;8235;52.198;9.904;2024-03-02T06:19:00;99634.13;;;6.73;94.17
16255;BME280;8235;52.198;9.904;2024-03-02T06:21:27;99639.50;;;6.72;94.26
16255;BME280;8235;52.198;9.904;2024-03-02T06:23:55;99632.69;;;6.68;93.81
16255;BME280;8235;52.198;9.904;2024-03-02T06:26:21;99639.69;;;6.69;94.30
16255;BME280;8235;52.198;9.904;2024-03-02T06:28:48;99640.34;;;6.72;95.47
16255;BME280;8235;52.198;9.904;2024-03-02T06:31:14;99645.66;;;6.72;96.07
16255;BME280;8235;52.198;9.904;2024-03-02T06:33:41;99639.22;;;6.76;96.52
16255;BME280;8235;52.198;9.904;2024-03-02T06:36:07;99644.41;;;6.78;96.80
16255;BME280;8235;52.198;9.904;2024-03-02T06:38:34;99648.66;;;6.80;97.46
16255;BME280;8235;52.198;9.904;2024-03-02T06:41:03;99650.25;;;6.83;97.39
16255;BME280;8235;52.198;9.904;2024-03-02T06:43:29;99656.19;;;6.86;97.67
16255;BME280;8235;52.198;9.904;2024-03-02T06:45:56;99653.81;;;6.96;98.24
16255;BME280;8235;52.198;9.904;2024-03-02T06:48:22;99644.84;;;6.99;98.53
16255;BME280;8235;52.198;9.904;2024-03-02T06:50:50;99655.03;;;7.05;98.39
16255;BME280;8235;52.198;9.904;2024-03-02T06:53:17;99661.72;;;7.10;98.08
16255;BME280;8235;52.198;9.904;2024-03-02T06:55:45;99650.84;;;7.15;97.89
16255;BME280;8235;52.198;9.904;2024-03-02T06:58:13;99645.03;;;7.22;97.50
16255;BME280;8235;52.198;9.904;2024-03-02T07:00:40;99649.94;;;7.28;98.02
16255;BME280;8235;52.198;9.904;2024-03-02T07:03:07;99659.16;;;7.36;97.47
16255;BME280;8235;52.198;9.904;2024-03-02T07:05:33;99658.97;;;7.39;97.94
16255;BME280;8235;52.198;9.904;2024-03-02T07:08:00;99655.25;;;7.41;97.21
16255;BME280;8235;52.198;9.904;2024-03-02T07:10:26;99650.41;;;7.48;96.85
16255;BME280;8235;52.198;9.904;2024-03-02T07:12:53;99653.72;;;7.51;97.27
16255;BME280;8235;52.198;9.904;2024-03-02T07:15:21;99650.84;;;7.54;96.85
16255;BME280;8235;52.198;9.904;2024-03-02T07:17:55;99651.38;;;7.59;96.32
16255;BME280;8235;52.198;9.904;2024-03-02T07:20:21;99654.69;;;7.63;96.82
16255;BME280;8235;52.198;9.904;2024-03-02T07:22:48;99656.19;;;7.67;96.27
16255;BME280;8235;52.198;9.904;2024-03-02T07:25:14;99661.16;;;7.72;96.35
16255;BME280;8235;52.198;9.904;2024-03-02T07:27:41;99663.81;;;7.72;96.63
16255;BME280;8235;52.198;9.904;2024-03-02T07:30:10;99658.22;;;7.76;96.54
16255;BME280;8235;52.198;9.904;2024-03-02T07:32:42;99670.50;;;7.77;95.94
16255;BME280;8235;52.198;9.904;2024-03-02T07:35:11;99667.00;;;7.77;96.20
16255;BME280;8235;52.198;9.904;2024-03-02T07:37:37;99679.22;;;7.79;96.14
16255;BME280;8235;52.198;9.904;2024-03-02T07:40:05;99680.59;;;7.85;95.72
16255;BME280;8235;52.198;9.904;2024-03-02T07:42:34;99687.59;;;7.86;95.94
16255;BME280;8235;52.198;9.904;2024-03-02T07:45:01;99680.91;;;7.93;95.79
16255;BME280;8235;52.198;9.904;2024-03-02T07:47:27;99689.63;;;7.95;95.88
16255;BME280;8235;52.198;9.904;2024-03-02T07:49:55;99696.97;;;8.04;95.00
16255;BME280;8235;52.198;9.904;2024-03-02T07:52:22;99693.13;;;8.08;94.51
16255;BME280;8235;52.198;9.904;2024-03-02T07:54:48;99698.03;;;8.14;94.70
16255;BME280;8235;52.198;9.904;2024-03-02T07:57:15;99702.81;;;8.22;94.29
16255;BME280;8235;52.198;9.904;2024-03-02T07:59:41;99711.19;;;8.28;93.92
16255;BME280;8235;52.198;9.904;2024-03-02T08:02:09;99703.59;;;8.37;92.78
16255;BME280;8235;52.198;9.904;2024-03-02T08:04:36;99702.94;;;8.46;91.30
16255;BME280;8235;52.198;9.904;2024-03-02T08:07:04;99706.13;;;8.51;91.76
16255;BME280;8235;52.198;9.904;2024-03-02T08:09:31;99711.03;;;8.57;91.01
16255;BME280;8235;52.198;9.904;2024-03-02T08:11:57;99705.47;;;8.60;90.49
16255;BME280;8235;52.198;9.904;2024-03-02T08:14:24;99709.50;;;8.65;90.04
16255;BME280;8235;52.198;9.904;2024-03-02T08:16:50;99708.25;;;8.71;90.16
16255;BME280;8235;52.198;9.904;2024-03-02T08:19:17;99712.28;;;8.77;89.71
16255;BME280;8235;52.198;9.904;2024-03-02T08:21:43;99711.72;;;8.84;89.31
16255;BME280;8235;52.198;9.904;2024-03-02T08:24:12;99713.00;;;8.91;89.31
16255;BME280;8235;52.198;9.904;2024-03-02T08:26:38;99718.59;;;8.99;88.03
16255;BME280;8235;52.198;9.904;2024-03-02T08:29:12;99717.09;;;9.08;87.69
16255;BME280;8235;52.198;9.904;2024-03-02T08:31:39;99716.53;;;9.16;86.24
16255;BME280;8235;52.198;9.904;2024-03-02T08:34:05;99708.34;;;9.19;85.80
16255;BME280;8235;52.198;9.904;2024-03-02T08:36:32;99719.59;;;9.22;85.92
16255;BME280;8235;52.198;9.904;2024-03-02T08:38:58;99709.50;;;9.27;85.46
16255;BME280;8235;52.198;9.904;2024-03-02T08:41:26;99716.03;;;9.34;85.68
16255;BME280;8235;52.198;9.904;2024-03-02T08:43:52;99716.97;;;9.46;84.75
16255;BME280;8235;52.198;9.904;2024-03-02T08:46:19;99713.50;;;9.57;85.17
16255;BME280;8235;52.198;9.904;2024-03-02T08:48:46;99710.03;;;9.67;84.57
16255;BME280;8235;52.198;9.904;2024-03-02T08:51:12;99717.34;;;9.77;83.65
16255;BME280;8235;52.198;9.904;2024-03-02T08:53:39;99704.19;;;9.86;82.73
16255;BME280;8235;52.198;9.904;2024-03-02T08:56:06;99713.31;;;9.95;81.83
16255;BME280;8235;52.198;9.904;2024-03-02T08:58:34;99715.41;;;10.02;82.15
16255;BME280;8235;52.198;9.904;2024-03-02T09:01:01;99721.94;;;10.09;81.65
16255;BME280;8235;52.198;9.904;2024-03-02T09:03:28;99726.59;;;10.19;79.97
16255;BME280;8235;52.198;9.904;2024-03-02T09:05:54;99725.25;;;10.24;80.81
16255;BME280;8235;52.198;9.904;2024-03-02T09:08:21;99730.84;;;10.32;80.53
16255;BME280;8235;52.198;9.904;2024-03-02T09:10:47;99725.53;;;10.43;80.18
16255;BME280;8235;52.198;9.904;2024-03-02T09:13:14;99728.47;;;10.52;79.72
16255;BME280;8235;52.198;9.904;2024-03-02T09:15:41;99725.81;;;10.63;77.44
16255;BME280;8235;52.198;9.904;2024-03-02T09:18:09;99728.13;;;10.67;76.82
16255;BME280;8235;52.198;9.904;2024-03-02T09:20:36;99723.03;;;10.75;74.77
16255;BME280;8235;52.198;9.904;2024-03-02T09:23:02;99727.50;;;10.75;74.18
16255;BME280;8235;52.198;9.904;2024-03-02T09:25:29;99729.69;;;10.81;73.70
16255;BME280;8235;52.198;9.904;2024-03-02T09:27:55;99731.03;;;10.87;72.68
16255;BME280;8235;52.198;9.904;2024-03-02T09:30:22;99722.53;;;10.93;71.82
16255;BME280;8235;52.198;9.904;2024-03-02T09:32:50;99719.50;;;10.97;70.92
16255;BME280;8235;52.198;9.904;2024-03-02T09:35:16;99722.91;;;10.99;71.10
16255;BME280;8235;52.198;9.904;2024-03-02T09:37:43;99727.03;;;11.03;72.06
16255;BME280;8235;52.198;9.904;2024-03-02T09:40:10;99728.94;;;11.12;71.91
16255;BME280;8235;52.198;9.904;2024-03-02T09:42:37;99729.91;;;11.23;69.69
16255;BME280;8235;52.198;9.904;2024-03-02T09:45:05;99724.34;;;11.26;69.04
16255;BME280;8235;52.198;9.904;2024-03-02T09:47:35;99729.66;;;11.26;70.29
16255;BME280;8235;52.198;9.904;2024-03-02T09:50:09;99734.72;;;11.29;69.84
16255;BME280;8235;52.198;9.904;2024-03-02T09:52:36;99738.00;;;11.32;69.07
16255;BME280;8235;52.198;9.904;2024-03-02T09:55:04;99739.56;;;11.35;68.83
16255;BME280;8235;52.198;9.904;2024-03-02T09:57:31;99743.56;;;11.40;69.38
16255;BME280;8235;52.198;9.904;2024-03-02T10:00:08;99746.72;;;11.45;69.28
16255;BME280;8235;52.198;9.904;2024-03-02T10:02:39;99741.84;;;11.51;69.09
16255;BME280;8235;52.198;9.904;2024-03-02T10:05:08;99736.75;;;11.59;69.16
16255;BME280;8235;52.198;9.904;2024-03-02T10:07:34;99739.03;;;11.63;68.94
16255;BME280;8235;52.198;9.904;2024-03-02T10:10:12;99743.13;;;11.67;69.19
16255;BME280;8235;52.198;9.904;2024-03-02T10:12:39;99725.91;;;11.71;69.44
16255;BME280;8235;52.198;9.904;2024-03-02T10:15:06;99728.22;;;11.76;68.00
16255;BME280;8235;52.198;9.904;2024-03-02T10:17:34;99734.50;;;11.75;66.74
16255;BME280;8235;52.198;9.904;2024-03-02T10:20:22;99740.69;;;11.75;66.01
16255;BME280;8235;52.198;9.904;2024-03-02T10:22:49;99743.13;;;11.78;66.27
16255;BME280;8235;52.198;9.904;2024-03-02T10:25:28;99740.06;;;11.83;67.25
16255;BME280;8235;52.198;9.904;2024-03-02T10:27:57;99741.38;;;11.89;67.00
16255;BME280;8235;52.198;9.904;2024-03-02T10:30:24;99742.09;;;11.91;66.86
16255;BME280;8235;52.198;9.904;2024-03-02T10:32:50;99741.00;;;11.93;67.46
16255;BME280;8235;52.198;9.904;2024-03-02T10:35:19;99738.22;;;11.95;66.64
16255;BME280;8235;52.198;9.904;2024-03-02T10:37:47;99737.38;;;11.94;67.12
16255;BME280;8235;52.198;9.904;2024-03-02T10:40:14;99744.53;;;11.94;66.55
16255;BME280;8235;52.198;9.904;2024-03-02T10:42:41;99739.66;;;11.99;66.30
16255;BME280;8235;52.198;9.904;2024-03-02T10:45:09;99738.94;;;11.97;66.15
16255;BME280;8235;52.198;9.904;2024-03-02T10:47:37;99739.91;;;11.96;66.34
16255;BME280;8235;52.198;9.904;2024-03-02T10:50:04;99739.66;;;11.99;66.28
16255;BME280;8235;52.198;9.904;2024-03-02T10:52:34;99735.16;;;11.99;65.83
16255;BME280;8235;52.198;9.904;2024-03-02T10:55:01;99738.41;;;12.03;66.54
16255;BME280;8235;52.198;9.904;2024-03-02T10:57:33;99738.75;;;12.09;66.45
16255;BME280;8235;52.198;9.904;2024-03-02T11:00:06;99736.69;;;12.13;65.93
16255;BME280;8235;52.198;9.904;2024-03-02T11:02:41;99735.16;;;12.20;65.64
16255;BME280;8235;52.198;9.904;2024-03-02T11:05:10;99733.94;;;12.24;65.61
16255;BME280;8235;52.198;9.904;2024-03-02T11:07:39;99736.22;;;12.29;65.48
16255;BME280;8235;52.198;9.904;2024-03-02T11:10:08;99734.16;;;12.32;64.41
16255;BME280;8235;52.198;9.904;2024-03-02T11:12:36;99738.50;;;12.33;64.73
16255;BME280;8235;52.198;9.904;2024-03-02T11:15:10;99737.97;;;12.39;63.53
16255;BME280;8235;52.198;9.904;2024-03-02T11:17:38;99741.63;;;12.38;63.41
16255;BME280;8235;52.198;9.904;2024-03-02T11:20:06;99737.72;;;12.42;63.96
16255;BME280;8235;52.198;9.904;2024-03-02T11:22:34;99746.47;;;12.54;63.46
16255;BME280;8235;52.198;9.904;2024-03-02T11:25:03;99740.88;;;12.57;63.54
16255;BME280;8235;52.198;9.904;2024-03-02T11:28:02;99741.09;;;12.65;63.27
16255;BME280;8235;52.198;9.904;2024-03-02T11:30:51;99743.91;;;12.73;61.39
16255;BME280;8235;52.198;9.904;2024-03-02T11:33:25;99737.09;;;12.80;61.08
16255;BME280;8235;52.198;9.904;2024-03-02T11:35:56;99734.28;;;12.82;60.05
16255;BME280;8235;52.198;9.904;2024-03-02T11:38:22;99729.53;;;12.85;59.33
16255;BME280;8235;52.198;9.904;2024-03-02T11:40:51;99730.09;;;12.89;59.99
16255;BME280;8235;52.198;9.904;2024-03-02T11:43:18;99733.19;;;12.94;60.62
16255;BME280;8235;52.198;9.904;2024-03-02T11:45:45;99735.47;;;12.99;60.82
16255;BME280;8235;52.198;9.904;2024-03-02T11:48:14;99733.13;;;13.05;60.39
16255;BME280;8235;52.198;9.904;2024-03-02T11:50:42;99729.03;;;13.11;60.43
16255;BME280;8235;52.198;9.904;2024-03-02T11:53:10;99722.00;;;13.10;60.14
16255;BME280;8235;52.198;9.904;2024-03-02T11:55:38;99718.06;;;13.14;60.11
16255;BME280;8235;52.198;9.904;2024-03-02T11:58:07;99717.97;;;13.15;59.94
16255;BME280;8235;52.198;9.904;2024-03-02T12:00:34;99716.16;;;13.16;59.83
16255;BME280;8235;52.198;9.904;2024-03-02T12:03:01;99720.66;;;13.15;59.35
16255;BME280;8235;52.198;9.904;2024-03-02T12:05:29;99718.91;;;13.14;60.24
16255;BME280;8235;52.198;9.904;2024-03-02T12:07:56;99712.63;;;13.15;59.07
16255;BME280;8235;52.198;9.904;2024-03-02T12:10:23;99717.00;;;13.16;59.36
16255;BME280;8235;52.198;9.904;2024-03-02T12:12:55;99717.84;;;13.17;59.46
16255;BME280;8235;52.198;9.904;2024-03-02T12:15:25;99709.97;;;13.15;59.75
16255;BME280;8235;52.198;9.904;2024-03-02T12:17:53;99709.97;;;13.15;59.31
16255;BME280;8235;52.198;9.904;2024-03-02T12:20:20;99706.44;;;13.15;60.37
16255;BME280;8235;52.198;9.904;2024-03-02T12:22:46;99699.25;;;13.15;59.50
16255;BME280;8235;52.198;9.904;2024-03-02T12:25:13;99693.91;;;13.15;60.89
16255;BME280;8235;52.198;9.904;2024-03-02T12:27:40;99688.44;;;13.17;59.60
16255;BME280;8235;52.198;9.904;2024-03-02T12:30:07;99686.34;;;13.20;59.11
16255;BME280;8235;52.198;9.904;2024-03-02T12:32:37;99680.00;;;13.22;59.36
16255;BME280;8235;52.198;9.904;2024-03-02T12:35:05;99678.72;;;13.26;58.59
16255;BME280;8235;52.198;9.904;2024-03-02T12:37:31;99683.53;;;13.32;58.97
16255;BME280;8235;52.198;9.904;2024-03-02T12:39:59;99683.84;;;13.38;59.85
16255;BME280;8235;52.198;9.904;2024-03-02T12:42:25;99684.97;;;13.45;58.55
16255;BME280;8235;52.198;9.904;2024-03-02T12:44:52;99690.88;;;13.49;58.55
16255;BME280;8235;52.198;9.904;2024-03-02T12:47:20;99684.41;;;13.51;57.76
16255;BME280;8235;52.198;9.904;2024-03-02T12:49:48;99689.75;;;13.51;57.99
16255;BME280;8235;52.198;9.904;2024-03-02T12:52:17;99686.69;;;13.56;58.01
16255;BME280;8235;52.198;9.904;2024-03-02T12:54:44;99685.41;;;13.60;57.41
16255;BME280;8235;52.198;9.904;2024-03-02T12:57:16;99690.31;;;13.65;56.47
16255;BME280;8235;52.198;9.904;2024-03-02T12:59:45;99692.03;;;13.66;55.88
16255;BME280;8235;52.198;9.904;2024-03-02T13:02:17;99684.00;;;13.66;55.64
16255;BME280;8235;52.198;9.904;2024-03-02T13:04:43;99683.72;;;13.69;55.53
16255;BME280;8235;52.198;9.904;2024-03-02T13:07:12;99677.66;;;13.67;55.56
16255;BME280;8235;52.198;9.904;2024-03-02T13:09:39;99678.50;;;13.67;55.63
16255;BME280;8235;52.198;9.904;2024-03-02T13:12:06;99675.41;;;13.72;56.17
16255;BME280;8235;52.198;9.904;2024-03-02T13:14:32;99672.59;;;13.73;55.33
16255;BME280;8235;52.198;9.904;2024-03-02T13:17:00;99673.16;;;13.77;54.86
16255;BME280;8235;52.198;9.904;2024-03-02T13:19:29;99672.00;;;13.79;54.90